createdAt,value
2022-11-05T00:01:29.011Z,96.03
2022-11-05T00:04:14.089Z,107.38
2022-11-05T00:07:00.616Z,97.15
2022-11-05T00:09:30.182Z,96.43
2022-11-05T00:12:22.976Z,96.63
2022-11-05T00:15:08.413Z,96.43
2022-11-05T00:17:35.949Z,100.05
2022-11-05T00:20:02.772Z,98.13
2022-11-05T00:22:47.895Z,96.47
2022-11-05T00:25:14.770Z,96.35
2022-11-05T00:27:41.588Z,97.57
2022-11-05T00:30:09.581Z,96.45
2022-11-05T00:32:36.232Z,97.90
2022-11-05T00:35:02.889Z,97.43
2022-11-05T00:37:30.137Z,97.85
2022-11-05T00:39:56.801Z,99.65
2022-11-05T00:42:41.892Z,96.55
2022-11-05T00:45:08.968Z,97.47
2022-11-05T00:47:54.049Z,100.03
2022-11-05T00:50:21.995Z,96.63
2022-11-05T00:52:56.784Z,98.95
2022-11-05T00:55:24.094Z,97.80
2022-11-05T00:57:50.885Z,97.38
2022-11-05T01:00:17.736Z,97.20
2022-11-05T01:02:44.485Z,99.20
2022-11-05T01:05:11.290Z,95.63
2022-11-05T01:07:37.926Z,98.47
2022-11-05T01:10:05.325Z,97.35
2022-11-05T01:12:32.577Z,101.20
2022-11-05T01:15:00.770Z,97.88
2022-11-05T01:17:27.616Z,97.65
2022-11-05T01:19:54.225Z,101.88
2022-11-05T01:22:20.869Z,98.50
2022-11-05T01:24:47.521Z,96.22
2022-11-05T01:27:14.175Z,99.25
2022-11-05T01:29:41.668Z,97.65
2022-11-05T01:32:08.491Z,96.35
2022-11-05T01:34:35.167Z,98.57
2022-11-05T01:37:01.825Z,97.80
2022-11-05T01:39:28.454Z,95.93
2022-11-05T01:41:55.079Z,100.03
2022-11-05T01:44:57.305Z,97.43
2022-11-05T01:47:35.800Z,96.85
2022-11-05T01:50:07.416Z,98.47
2022-11-05T01:52:35.552Z,98.20
2022-11-05T01:55:03.778Z,98.70
2022-11-05T01:57:32.378Z,98.50
2022-11-05T02:00:01.282Z,96.93
2022-11-05T02:02:28.909Z,98.15
2022-11-05T02:05:00.959Z,97.25
2022-11-05T02:07:29.170Z,98.43
2022-11-05T02:10:06.798Z,96.75
2022-11-05T02:12:34.337Z,96.35
2022-11-05T02:15:00.967Z,98.65
2022-11-05T02:17:55.995Z,97.03
2022-11-05T02:20:35.720Z,103.28
2022-11-05T02:23:25.982Z,102.20
2022-11-05T02:26:09.233Z,98.20
2022-11-05T02:28:35.818Z,97.47
2022-11-05T02:31:04.674Z,98.70
2022-11-05T02:33:57.129Z,102.28
2022-11-05T02:37:14.463Z,96.65
2022-11-05T02:40:02.312Z,99.57
2022-11-05T02:43:05.879Z,97.97
2022-11-05T02:45:48.412Z,99.72
2022-11-05T02:48:47.007Z,104.63
2022-11-05T02:51:43.799Z,104.13
2022-11-05T02:54:29.325Z,106.72
2022-11-05T02:56:59.178Z,109.10
2022-11-05T02:59:25.865Z,118.05
2022-11-05T03:01:53.330Z,109.88
2022-11-05T03:04:23.348Z,110.68
2022-11-05T03:07:20.611Z,107.53
2022-11-05T03:10:04.001Z,112.47
2022-11-05T03:13:17.244Z,113.10
2022-11-05T03:16:10.320Z,109.85
2022-11-05T03:18:46.191Z,111.63
2022-11-05T03:21:21.607Z,114.20
2022-11-05T03:24:05.902Z,114.03
2022-11-05T03:26:37.951Z,114.25
2022-11-05T03:29:13.345Z,112.50
2022-11-05T03:31:41.552Z,113.00
2022-11-05T03:34:10.512Z,117.60
2022-11-05T03:36:49.922Z,116.03
2022-11-05T03:39:21.836Z,121.82
2022-11-05T03:41:51.851Z,116.40
2022-11-05T03:44:26.026Z,113.05
2022-11-05T03:46:55.235Z,120.18
2022-11-05T03:49:26.664Z,117.97
2022-11-05T03:52:03.150Z,111.55
2022-11-05T03:54:29.865Z,115.78
2022-11-05T03:57:10.856Z,116.50
2022-11-05T03:59:46.388Z,112.65
2022-11-05T04:02:15.441Z,117.25
2022-11-05T04:04:42.285Z,114.28
2022-11-05T04:07:29.496Z,118.10
2022-11-05T04:10:31.665Z,116.70
2022-11-05T04:13:16.735Z,119.95
2022-11-05T04:16:02.144Z,113.38
2022-11-05T04:18:28.817Z,115.65
2022-11-05T04:21:13.981Z,114.75
2022-11-05T04:23:59.585Z,112.25
2022-11-05T04:26:26.219Z,111.68
2022-11-05T04:29:12.024Z,106.85
2022-11-05T04:31:39.021Z,111.93
2022-11-05T04:34:05.660Z,107.50
2022-11-05T04:36:32.339Z,117.97
2022-11-05T04:38:58.998Z,110.38
2022-11-05T04:41:26.216Z,110.35
2022-11-05T04:43:52.854Z,108.15
2022-11-05T04:46:19.481Z,112.80
2022-11-05T04:48:46.096Z,104.57
2022-11-05T04:51:12.757Z,103.43
2022-11-05T04:53:39.386Z,104.90
2022-11-05T04:56:11.188Z,103.88
2022-11-05T04:58:42.056Z,107.63
2022-11-05T05:01:17.745Z,104.28
2022-11-05T05:03:46.589Z,105.25
2022-11-05T05:06:13.213Z,105.20
2022-11-05T05:08:39.863Z,111.32
2022-11-05T05:11:09.201Z,106.85
2022-11-05T05:13:35.924Z,110.30
2022-11-05T05:16:11.317Z,100.15
2022-11-05T05:18:42.152Z,102.47
2022-11-05T05:21:30.244Z,100.60
2022-11-05T05:23:56.896Z,100.10
2022-11-05T05:26:23.516Z,100.30
2022-11-05T05:28:50.176Z,105.88
2022-11-05T05:31:16.794Z,102.00
2022-11-05T05:33:43.441Z,99.90
2022-11-05T05:36:11.639Z,98.85
2022-11-05T05:38:38.478Z,98.30
2022-11-05T05:41:05.229Z,98.38
2022-11-05T05:43:33.323Z,99.03
2022-11-05T05:46:09.789Z,102.05
2022-11-05T05:48:36.552Z,100.68
2022-11-05T05:51:09.050Z,103.15
2022-11-05T05:53:37.365Z,102.45
2022-11-05T05:56:04.468Z,100.70
2022-11-05T05:58:39.250Z,103.22
2022-11-05T06:01:18.247Z,105.82
2022-11-05T06:03:45.618Z,100.40
2022-11-05T06:06:13.501Z,101.07
2022-11-05T06:08:40.700Z,102.65
2022-11-05T06:11:08.113Z,104.70
2022-11-05T06:13:36.152Z,101.22
2022-11-05T06:16:05.039Z,101.43
2022-11-05T06:18:32.985Z,103.68
2022-11-05T06:21:02.263Z,107.53
2022-11-05T06:23:33.840Z,105.70
2022-11-05T06:26:05.863Z,104.50
2022-11-05T06:28:33.552Z,105.32
2022-11-05T06:31:00.542Z,105.60
2022-11-05T06:33:27.721Z,108.53
2022-11-05T06:35:54.893Z,102.43
2022-11-05T06:38:21.573Z,104.80
2022-11-05T06:40:48.415Z,101.65
2022-11-05T06:43:15.183Z,100.80
2022-11-05T06:45:42.202Z,104.35
2022-11-05T06:48:09.146Z,103.90
2022-11-05T06:50:35.808Z,103.78
2022-11-05T06:53:04.245Z,113.13
2022-11-05T06:55:31.975Z,103.72
2022-11-05T06:57:58.823Z,101.65
2022-11-05T07:00:25.568Z,106.50
2022-11-05T07:02:52.172Z,105.13
2022-11-05T07:05:18.991Z,102.80
2022-11-05T07:07:46.071Z,104.32
2022-11-05T07:10:15.272Z,105.13
2022-11-05T07:12:42.358Z,104.43
2022-11-05T07:15:10.297Z,105.97
2022-11-05T07:17:37.419Z,102.70
2022-11-05T07:20:05.985Z,104.93
2022-11-05T07:22:33.249Z,104.70
2022-11-05T07:24:59.945Z,108.00
2022-11-05T07:27:26.763Z,110.25
2022-11-05T07:29:53.391Z,106.10
2022-11-05T07:32:20.024Z,113.65
2022-11-05T07:34:46.682Z,108.95
2022-11-05T07:37:13.381Z,106.68
2022-11-05T07:39:39.988Z,108.13
2022-11-05T07:42:06.624Z,111.20
2022-11-05T07:44:33.339Z,106.22
2022-11-05T07:46:59.976Z,103.13
2022-11-05T07:49:26.587Z,108.40
2022-11-05T07:51:53.628Z,112.80
2022-11-05T07:54:20.333Z,111.90
2022-11-05T07:56:47.936Z,105.68
2022-11-05T07:59:14.544Z,111.78
2022-11-05T08:01:41.326Z,110.63
2022-11-05T08:04:08.591Z,104.40
2022-11-05T08:06:35.503Z,108.80
2022-11-05T08:09:02.250Z,113.55
2022-11-05T08:11:28.886Z,107.68
2022-11-05T08:13:55.542Z,112.00
2022-11-05T08:16:22.169Z,113.40
2022-11-05T08:18:49.389Z,110.82
2022-11-05T08:21:16.073Z,108.68
2022-11-05T08:23:42.967Z,109.38
2022-11-05T08:26:10.238Z,110.03
2022-11-05T08:28:36.895Z,109.65
2022-11-05T08:31:03.615Z,106.03
2022-11-05T08:33:31.445Z,107.85
2022-11-05T08:36:02.937Z,106.50
2022-11-05T08:38:29.848Z,105.45
2022-11-05T08:40:58.085Z,104.82
2022-11-05T08:43:25.020Z,105.40
2022-11-05T08:45:52.049Z,103.70
2022-11-05T08:48:19.398Z,109.97
2022-11-05T08:50:48.141Z,102.05
2022-11-05T08:53:15.935Z,101.45
2022-11-05T08:55:44.096Z,99.05
2022-11-05T08:58:14.921Z,97.88
2022-11-05T09:00:42.680Z,100.88
2022-11-05T09:03:10.512Z,102.13
2022-11-05T09:05:39.265Z,97.25
2022-11-05T09:08:07.182Z,95.85
2022-11-05T09:10:34.294Z,96.70
2022-11-05T09:13:01.259Z,94.38
2022-11-05T09:15:29.532Z,96.80
2022-11-05T09:17:56.513Z,95.97
2022-11-05T09:20:23.874Z,94.43
2022-11-05T09:22:50.725Z,95.95
2022-11-05T09:25:17.448Z,91.93
2022-11-05T09:27:44.456Z,92.93
2022-11-05T09:30:12.425Z,96.97
2022-11-05T09:32:39.424Z,91.85
2022-11-05T09:35:07.181Z,93.72
2022-11-05T09:37:34.096Z,93.18
2022-11-05T09:40:00.720Z,97.85
2022-11-05T09:42:40.367Z,94.18
2022-11-05T09:45:17.990Z,93.95
2022-11-05T09:47:49.281Z,92.75
2022-11-05T09:50:31.016Z,94.20
2022-11-05T09:52:58.359Z,91.90
2022-11-05T09:55:32.781Z,91.47
2022-11-05T09:58:02.068Z,92.40
2022-11-05T10:00:31.003Z,90.57
2022-11-05T10:03:08.237Z,87.90
2022-11-05T10:05:36.937Z,87.50
2022-11-05T10:08:11.280Z,86.57
2022-11-05T10:11:07.135Z,89.23
2022-11-05T10:13:52.306Z,86.90
2022-11-05T10:16:33.948Z,87.17
2022-11-05T10:19:24.104Z,86.57
2022-11-05T10:22:10.186Z,92.67
2022-11-05T10:24:37.828Z,86.60
2022-11-05T10:27:05.216Z,86.43
2022-11-05T10:29:34.350Z,86.17
2022-11-05T10:32:05.513Z,87.20
2022-11-05T10:34:34.814Z,83.70
2022-11-05T10:37:01.932Z,87.83
2022-11-05T10:39:31.208Z,83.07
2022-11-05T10:42:06.596Z,82.37
2022-11-05T10:44:43.739Z,80.07
2022-11-05T10:47:42.487Z,88.40
2022-11-05T10:50:29.577Z,82.37
2022-11-05T10:53:04.541Z,85.80
2022-11-05T10:55:32.994Z,83.60
2022-11-05T10:58:18.989Z,82.77
2022-11-05T11:00:49.632Z,83.17
2022-11-05T11:03:36.244Z,81.77
2022-11-05T11:06:07.641Z,82.67
2022-11-05T11:08:36.595Z,81.17
2022-11-05T11:11:07.858Z,84.10
2022-11-05T11:13:59.881Z,80.80
2022-11-05T11:16:33.361Z,80.67
2022-11-05T11:19:01.207Z,81.17
2022-11-05T11:21:29.724Z,80.63
2022-11-05T11:24:07.073Z,79.20
2022-11-05T11:26:38.945Z,80.70
2022-11-05T11:29:41.128Z,80.17
2022-11-05T11:32:16.996Z,80.30
2022-11-05T11:34:45.570Z,76.97
2022-11-05T11:37:19.897Z,77.40
2022-11-05T11:39:54.589Z,81.50
2022-11-05T11:42:23.628Z,76.80
2022-11-05T11:44:51.391Z,78.70
2022-11-05T11:47:20.847Z,80.37
2022-11-05T11:50:01.396Z,78.63
2022-11-05T11:52:36.726Z,84.03
2022-11-05T11:55:12.477Z,77.17
2022-11-05T11:57:48.555Z,82.67
2022-11-05T12:00:17.093Z,79.27
2022-11-05T12:03:00.516Z,83.40
2022-11-05T12:06:07.187Z,83.70
2022-11-05T12:08:33.773Z,84.27
2022-11-05T12:11:15.332Z,90.43
2022-11-05T12:14:05.285Z,86.50
2022-11-05T12:16:45.707Z,86.72
2022-11-05T12:19:31.817Z,86.65
2022-11-05T12:22:09.206Z,91.38
2022-11-05T12:25:09.040Z,86.80
2022-11-05T12:27:47.648Z,88.63
2022-11-05T12:30:19.987Z,87.80
2022-11-05T12:33:07.903Z,87.47
2022-11-05T12:35:48.244Z,91.38
2022-11-05T12:38:45.007Z,88.93
2022-11-05T12:41:32.308Z,89.57
2022-11-05T12:44:30.460Z,90.95
2022-11-05T12:47:06.380Z,92.78
2022-11-05T12:49:47.439Z,93.78
2022-11-05T12:52:57.338Z,91.45
2022-11-05T12:55:33.173Z,91.15
2022-11-05T12:58:10.117Z,91.00
2022-11-05T13:00:37.980Z,92.05
2022-11-05T13:03:13.659Z,94.45
2022-11-05T13:05:47.384Z,93.45
2022-11-05T13:08:33.777Z,90.70
2022-11-05T13:11:12.812Z,95.40
2022-11-05T13:14:24.529Z,92.65
2022-11-05T13:17:05.453Z,99.47
2022-11-05T13:19:47.320Z,93.72
2022-11-05T13:22:21.109Z,92.65
2022-11-05T13:24:50.433Z,96.70
2022-11-05T13:27:37.287Z,91.88
2022-11-05T13:30:07.133Z,92.47
2022-11-05T13:32:40.827Z,94.05
2022-11-05T13:35:15.684Z,91.82
2022-11-05T13:38:04.368Z,91.40
2022-11-05T13:40:49.048Z,94.75
2022-11-05T13:43:38.100Z,95.05
2022-11-05T13:46:40.052Z,91.53
2022-11-05T13:49:26.952Z,92.22
2022-11-05T13:52:17.338Z,91.18
2022-11-05T13:54:43.952Z,95.47
2022-11-05T13:57:20.836Z,98.22
2022-11-05T14:00:20.623Z,92.10
2022-11-05T14:02:52.881Z,91.70
2022-11-05T14:05:38.044Z,94.32
2022-11-05T14:08:20.357Z,92.95
2022-11-05T14:11:00.153Z,96.43
2022-11-05T14:13:33.440Z,93.47
2022-11-05T14:16:04.807Z,92.20
2022-11-05T14:18:41.321Z,92.25
2022-11-05T14:21:26.184Z,94.45
2022-11-05T14:23:55.369Z,93.15
2022-11-05T14:26:23.836Z,92.22
2022-11-05T14:29:10.404Z,94.53
2022-11-05T14:34:47.132Z,93.65
2022-11-05T14:37:28.759Z,93.10
2022-11-05T14:39:56.425Z,93.15
2022-11-05T14:42:29.366Z,95.00
2022-11-05T14:45:00.602Z,96.45
2022-11-05T14:47:32.769Z,92.72
2022-11-05T14:50:11.441Z,97.65
2022-11-05T14:52:40.263Z,94.90
2022-11-05T14:55:22.746Z,94.30
2022-11-05T14:57:52.703Z,93.32
2022-11-05T15:00:28.553Z,98.07
2022-11-05T15:03:01.416Z,96.13
2022-11-05T15:05:31.043Z,96.53
2022-11-05T15:07:58.696Z,95.40
2022-11-05T15:10:35.139Z,96.40
2022-11-05T15:13:06.243Z,93.90
2022-11-05T15:15:43.245Z,93.65
2022-11-05T15:18:21.853Z,92.82
2022-11-05T15:20:53.076Z,98.22
2022-11-05T15:23:23.024Z,95.57
2022-11-05T15:26:14.321Z,96.65
2022-11-05T15:28:43.487Z,95.03
2022-11-05T15:31:12.955Z,94.93
2022-11-05T15:33:44.963Z,97.65
2022-11-05T15:36:26.394Z,97.63
2022-11-05T15:39:22.955Z,94.03
2022-11-05T15:41:40.372Z,95.68
2022-11-05T15:44:30.877Z,93.32
2022-11-05T15:47:23.681Z,93.88
2022-11-05T15:49:55.444Z,99.70
2022-11-05T15:52:24.795Z,100.43
2022-11-05T15:55:13.394Z,97.35
2022-11-05T15:57:49.469Z,97.82
2022-11-05T16:00:20.388Z,101.65
2022-11-05T16:02:54.145Z,95.30
2022-11-05T16:05:22.013Z,95.80
2022-11-05T16:07:48.880Z,98.78
2022-11-05T16:10:40.020Z,99.13
2022-11-05T16:13:39.193Z,97.68
2022-11-05T16:16:13.233Z,96.68
2022-11-05T16:18:39.954Z,97.70
2022-11-05T16:21:06.621Z,101.90
2022-11-05T16:23:41.817Z,95.97
2022-11-05T16:29:27.867Z,99.28
2022-11-05T16:31:56.121Z,106.93
2022-11-05T16:34:37.682Z,101.25
2022-11-05T16:37:06.736Z,101.10
2022-11-05T16:39:33.757Z,99.43
2022-11-05T16:42:00.412Z,98.30
2022-11-05T16:44:27.093Z,102.75
2022-11-05T16:46:54.010Z,100.28
2022-11-05T16:49:20.888Z,98.63
2022-11-05T16:51:47.551Z,102.15
2022-11-05T16:54:14.171Z,101.03
2022-11-05T16:56:42.750Z,102.72
2022-11-05T16:59:13.840Z,104.47
2022-11-05T17:01:42.350Z,106.65
2022-11-05T17:04:12.911Z,105.13
2022-11-05T17:06:39.596Z,116.38
2022-11-05T17:09:06.232Z,107.22
2022-11-05T17:11:32.903Z,106.47
2022-11-05T17:13:59.567Z,105.68
2022-11-05T17:16:26.721Z,107.18
2022-11-05T17:18:53.361Z,106.07
2022-11-05T17:21:20.174Z,102.95
2022-11-05T17:23:46.802Z,108.82
2022-11-05T17:26:14.022Z,108.20
2022-11-05T17:28:41.167Z,108.90
2022-11-05T17:31:11.343Z,116.15
2022-11-05T17:33:38.075Z,116.45
2022-11-05T17:36:10.322Z,117.47
2022-11-05T17:38:37.133Z,131.63
2022-11-05T17:41:11.352Z,127.97
2022-11-05T17:43:38.014Z,119.80
2022-11-05T17:46:08.977Z,108.25
2022-11-05T17:48:36.644Z,110.65
2022-11-05T17:51:04.090Z,107.90
2022-11-05T17:53:31.164Z,120.95
2022-11-05T17:55:58.076Z,125.20
2022-11-05T17:58:24.887Z,112.50
2022-11-05T18:00:51.642Z,110.93
2022-11-05T18:03:18.370Z,112.93
2022-11-05T18:05:45.273Z,117.10
2022-11-05T18:08:12.547Z,118.50
2022-11-05T18:10:40.721Z,112.78
2022-11-05T18:13:07.722Z,104.63
2022-11-05T18:15:35.500Z,112.55
2022-11-05T18:18:02.427Z,112.70
2022-11-05T18:20:29.083Z,116.32
2022-11-05T18:22:55.717Z,112.47
2022-11-05T18:25:22.396Z,106.47
2022-11-05T18:27:49.164Z,112.25
2022-11-05T18:30:15.968Z,109.93
2022-11-05T18:32:44.056Z,113.03
2022-11-05T18:35:11.301Z,106.43
2022-11-05T18:37:39.000Z,110.25
2022-11-05T18:40:06.806Z,113.40
2022-11-05T18:42:33.535Z,109.20
2022-11-05T18:45:00.173Z,108.72
2022-11-05T18:47:26.797Z,117.93
2022-11-05T18:49:53.467Z,109.88
2022-11-05T18:52:20.129Z,108.00
2022-11-05T18:54:46.805Z,112.70
2022-11-05T18:57:13.488Z,109.93
2022-11-05T18:59:42.078Z,121.78
2022-11-05T19:02:11.187Z,107.57
2022-11-05T19:04:38.462Z,110.78
2022-11-05T19:07:06.178Z,105.82
2022-11-05T19:09:37.631Z,107.20
2022-11-05T19:12:05.763Z,106.65
2022-11-05T19:14:32.522Z,111.10
2022-11-05T19:17:00.143Z,108.53
2022-11-05T19:19:27.621Z,105.07
2022-11-05T19:21:54.361Z,108.13
2022-11-05T19:24:21.070Z,108.20
2022-11-05T19:26:48.498Z,104.40
2022-11-05T19:29:15.145Z,107.10
2022-11-05T19:31:41.948Z,109.25
2022-11-05T19:34:08.670Z,112.00
2022-11-05T19:36:35.328Z,115.85
2022-11-05T19:39:08.678Z,114.00
2022-11-05T19:41:35.394Z,144.80
2022-11-05T19:44:02.145Z,112.20
2022-11-05T19:46:30.313Z,111.18
2022-11-05T19:48:57.663Z,107.72
2022-11-05T19:51:26.823Z,104.60
2022-11-05T19:53:55.161Z,116.18
2022-11-05T19:56:30.197Z,106.68
2022-11-05T19:58:57.630Z,111.75
2022-11-05T20:01:26.547Z,107.60
2022-11-05T20:03:55.320Z,114.55
2022-11-05T20:06:28.511Z,111.70
2022-11-05T20:11:45.277Z,112.07
2022-11-05T20:14:12.017Z,117.72
2022-11-05T20:16:39.909Z,107.57
2022-11-05T20:19:10.232Z,107.30
2022-11-05T20:21:37.703Z,116.32
2022-11-05T20:24:04.852Z,113.13
2022-11-05T20:26:31.716Z,106.70
2022-11-05T20:28:58.356Z,112.38
2022-11-05T20:31:25.089Z,110.70
2022-11-05T20:33:52.304Z,110.47
2022-11-05T20:36:22.190Z,111.70
2022-11-05T20:38:58.546Z,107.68
2022-11-05T20:41:26.299Z,110.53
2022-11-05T20:43:53.356Z,105.22
2022-11-05T20:46:22.188Z,104.70
2022-11-05T20:48:49.046Z,110.20
2022-11-05T20:51:18.930Z,109.32
2022-11-05T20:53:48.941Z,106.50
2022-11-05T20:56:21.637Z,107.45
2022-11-05T20:58:48.771Z,108.07
2022-11-05T21:01:16.654Z,108.80
2022-11-05T21:03:44.968Z,110.20
2022-11-05T21:06:12.434Z,108.15
2022-11-05T21:08:39.369Z,107.22
2022-11-05T21:11:07.038Z,107.47
2022-11-05T21:13:34.019Z,114.03
2022-11-05T21:16:00.977Z,107.50
2022-11-05T21:18:30.365Z,112.10
2022-11-05T21:20:57.611Z,109.95
2022-11-05T21:23:24.234Z,115.18
2022-11-05T21:25:51.407Z,105.88
2022-11-05T21:28:18.406Z,112.40
2022-11-05T21:30:46.450Z,107.65
2022-11-05T21:33:15.631Z,109.25
2022-11-05T21:35:44.302Z,110.93
2022-11-05T21:38:13.114Z,109.25
2022-11-05T21:40:40.475Z,108.20
2022-11-05T21:43:07.567Z,116.40
2022-11-05T21:45:34.339Z,112.85
2022-11-05T21:48:00.966Z,106.88
2022-11-05T21:50:46.443Z,107.43
2022-11-05T21:53:33.153Z,109.05
2022-11-05T21:56:18.448Z,105.68
2022-11-05T21:59:03.909Z,105.32
2022-11-05T22:01:31.594Z,114.47
2022-11-05T22:04:02.881Z,107.32
2022-11-05T22:06:33.266Z,107.57
2022-11-05T22:08:59.925Z,114.25
2022-11-05T22:11:26.568Z,107.00
2022-11-05T22:13:53.552Z,111.10
2022-11-05T22:16:20.261Z,107.03
2022-11-05T22:18:46.925Z,108.70
2022-11-05T22:21:18.575Z,110.38
2022-11-05T22:23:45.363Z,109.70
2022-11-05T22:26:12.124Z,104.95
2022-11-05T22:28:38.752Z,107.45
2022-11-05T22:31:15.294Z,107.97
2022-11-05T22:33:42.521Z,113.53
2022-11-05T22:36:10.020Z,110.40
2022-11-05T22:38:36.960Z,109.80
2022-11-05T22:41:12.968Z,107.80
2022-11-05T22:43:40.219Z,111.63
2022-11-05T22:46:09.274Z,108.63
2022-11-05T22:48:37.278Z,106.85
2022-11-05T22:51:09.750Z,106.35
2022-11-05T22:53:37.098Z,110.18
2022-11-05T22:56:05.102Z,109.03
2022-11-05T22:58:31.941Z,107.82
2022-11-05T23:00:59.048Z,111.82
2022-11-05T23:03:30.072Z,110.95
2022-11-05T23:06:02.171Z,104.32
2022-11-05T23:08:48.067Z,108.95
2022-11-05T23:11:35.480Z,105.32
2022-11-05T23:14:02.496Z,108.00
2022-11-05T23:16:47.675Z,116.40
2022-11-05T23:19:32.960Z,107.40
2022-11-05T23:22:18.320Z,115.80
2022-11-05T23:24:45.024Z,108.03
2022-11-05T23:27:11.910Z,110.65
2022-11-05T23:29:38.799Z,106.35
2022-11-05T23:32:23.927Z,122.53
2022-11-05T23:34:51.748Z,110.28
2022-11-05T23:37:38.300Z,110.00
2022-11-05T23:40:07.290Z,116.30
2022-11-05T23:42:52.383Z,106.15
2022-11-05T23:45:37.853Z,108.78
2022-11-05T23:48:22.907Z,106.95
2022-11-05T23:50:55.681Z,108.63
2022-11-05T23:53:22.951Z,107.10
2022-11-05T23:55:50.323Z,108.03
2022-11-05T23:58:17.383Z,108.13
